createdAt,value
2018-11-14T00:00:52.469Z,19.23
2018-11-14T00:03:20.630Z,13.75
2018-11-14T00:05:48.762Z,14.13
2018-11-14T00:08:16.895Z,19.87
2018-11-14T00:10:45.435Z,12.73
2018-11-14T00:13:13.576Z,16.67
2018-11-14T00:15:41.700Z,13.08
2018-11-14T00:18:09.825Z,12.73
2018-11-14T00:20:37.973Z,13.00
2018-11-14T00:23:06.118Z,14.40
2018-11-14T00:25:34.233Z,12.60
2018-11-14T00:28:02.772Z,14.53
2018-11-14T00:30:30.506Z,13.40
2018-11-14T00:32:58.690Z,12.85
2018-11-14T00:35:26.795Z,13.25
2018-11-14T00:37:54.935Z,15.70
2018-11-14T00:40:23.068Z,17.92
2018-11-14T00:42:51.277Z,14.85
2018-11-14T00:45:20.544Z,16.40
2018-11-14T00:47:49.131Z,16.37
2018-11-14T00:50:17.929Z,13.45
2018-11-14T00:52:46.410Z,13.45
2018-11-14T00:55:21.732Z,14.43
2018-11-14T00:57:50.843Z,15.78
2018-11-14T01:00:20.245Z,19.37
2018-11-14T01:02:48.388Z,17.65
2018-11-14T01:05:17.104Z,15.53
2018-11-14T01:07:45.259Z,17.85
2018-11-14T01:10:15.285Z,16.15
2018-11-14T01:12:43.976Z,16.60
2018-11-14T01:15:14.200Z,15.35
2018-11-14T01:17:42.583Z,16.07
2018-11-14T01:20:12.822Z,16.17
2018-11-14T01:22:41.799Z,15.72
2018-11-14T01:25:11.049Z,16.48
2018-11-14T01:27:39.211Z,14.15
2018-11-14T01:30:13.243Z,14.75
2018-11-14T01:32:41.538Z,13.38
2018-11-14T01:35:09.703Z,12.50
2018-11-14T01:37:37.844Z,12.10
2018-11-14T01:40:09.404Z,12.98
2018-11-14T01:42:37.557Z,17.55
2018-11-14T01:45:08.127Z,13.62
2018-11-14T01:47:36.275Z,13.00
2018-11-14T01:50:05.382Z,31.97
2018-11-14T01:52:33.518Z,9.88
2018-11-14T01:55:01.696Z,11.88
2018-11-14T01:57:29.889Z,9.30
2018-11-14T01:59:58.043Z,10.08
2018-11-14T02:02:26.174Z,9.88
2018-11-14T02:04:54.314Z,11.70
2018-11-14T02:07:22.441Z,13.70
2018-11-14T02:09:51.126Z,12.00
2018-11-14T02:12:19.309Z,22.82
2018-11-14T02:14:47.449Z,21.55
2018-11-14T02:17:15.585Z,16.80
2018-11-14T02:19:43.713Z,13.78
2018-11-14T02:22:11.845Z,11.88
2018-11-14T02:24:39.978Z,10.43
2018-11-14T02:27:08.123Z,10.38
2018-11-14T02:29:36.274Z,11.48
2018-11-14T02:32:04.737Z,12.75
2018-11-14T02:34:32.883Z,11.55
2018-11-14T02:37:01.016Z,19.60
2018-11-14T02:39:29.160Z,11.22
2018-11-14T02:41:57.297Z,10.23
2018-11-14T02:44:25.434Z,8.70
2018-11-14T02:46:53.567Z,7.67
2018-11-14T02:49:21.705Z,10.10
2018-11-14T02:51:49.850Z,7.35
2018-11-14T02:54:18.002Z,8.23
2018-11-14T02:56:46.166Z,7.40
2018-11-14T02:59:14.295Z,8.63
2018-11-14T03:01:42.418Z,8.38
2018-11-14T03:04:10.550Z,11.20
2018-11-14T03:06:38.697Z,10.03
2018-11-14T03:09:07.760Z,11.50
2018-11-14T03:11:35.970Z,11.05
2018-11-14T03:14:04.118Z,10.58
2018-11-14T03:16:32.271Z,11.40
2018-11-14T03:19:00.438Z,11.40
2018-11-14T03:21:28.577Z,8.90
2018-11-14T03:23:56.697Z,13.65
2018-11-14T03:26:24.849Z,11.88
2018-11-14T03:28:52.985Z,6.00
2018-11-14T03:31:21.126Z,7.33
2018-11-14T03:33:49.253Z,7.87
2018-11-14T03:36:18.519Z,9.28
2018-11-14T03:38:46.805Z,8.68
2018-11-14T03:41:14.927Z,5.72
2018-11-14T03:43:43.161Z,9.85
2018-11-14T03:46:11.342Z,8.80
2018-11-14T03:48:39.477Z,10.20
2018-11-14T03:51:07.593Z,9.88
2018-11-14T03:53:35.725Z,9.85
2018-11-14T03:56:03.863Z,9.33
2018-11-14T03:58:32.050Z,7.35
2018-11-14T04:01:00.146Z,7.78
2018-11-14T04:03:28.284Z,8.43
2018-11-14T04:05:56.397Z,7.87
2018-11-14T04:08:24.524Z,7.78
2018-11-14T04:10:52.653Z,9.88
2018-11-14T04:13:20.807Z,7.70
2018-11-14T04:15:48.947Z,9.80
2018-11-14T04:18:17.068Z,6.37
2018-11-14T04:20:45.177Z,8.55
2018-11-14T04:23:13.293Z,7.53
2018-11-14T04:25:41.435Z,10.18
2018-11-14T04:28:09.558Z,6.87
2018-11-14T04:30:37.677Z,6.50
2018-11-14T04:33:05.955Z,6.50
2018-11-14T04:35:34.190Z,6.78
2018-11-14T04:38:02.365Z,6.10
2018-11-14T04:40:30.478Z,9.35
2018-11-14T04:42:58.626Z,9.85
2018-11-14T04:45:27.093Z,12.30
2018-11-14T04:47:55.353Z,10.28
2018-11-14T04:50:24.862Z,10.45
2018-11-14T04:52:53.334Z,8.88
2018-11-14T04:55:22.544Z,7.47
2018-11-14T04:57:51.017Z,7.70
2018-11-14T05:00:20.217Z,5.92
2018-11-14T05:02:49.110Z,5.65
2018-11-14T05:05:19.337Z,7.00
2018-11-14T05:07:47.555Z,6.67
2018-11-14T05:10:18.651Z,6.97
2018-11-14T05:12:47.228Z,7.55
2018-11-14T05:15:16.848Z,6.80
2018-11-14T05:17:45.577Z,9.30
2018-11-14T05:20:14.929Z,13.48
2018-11-14T05:22:43.506Z,7.15
2018-11-14T05:25:11.690Z,7.95
2018-11-14T05:27:39.917Z,9.60
2018-11-14T05:30:12.123Z,9.63
2018-11-14T05:32:40.254Z,7.37
2018-11-14T05:35:09.643Z,6.00
2018-11-14T05:37:38.502Z,8.00
2018-11-14T05:40:12.496Z,6.90
2018-11-14T05:42:40.943Z,6.95
2018-11-14T05:45:11.147Z,7.65
2018-11-14T05:47:39.241Z,11.00
2018-11-14T05:50:09.731Z,4.92
2018-11-14T05:52:38.107Z,5.30
2018-11-14T05:55:06.328Z,6.58
2018-11-14T05:57:42.271Z,6.78
2018-11-14T06:00:37.040Z,5.90
2018-11-14T06:03:05.364Z,6.72
2018-11-14T06:05:33.538Z,6.08
2018-11-14T06:08:01.739Z,6.35
2018-11-14T06:10:29.856Z,5.97
2018-11-14T06:12:58.011Z,6.08
2018-11-14T06:15:26.235Z,6.15
2018-11-14T06:17:55.306Z,6.60
2018-11-14T06:20:23.479Z,9.75
2018-11-14T06:22:52.310Z,10.72
2018-11-14T06:25:22.641Z,10.08
2018-11-14T06:27:51.830Z,7.03
2018-11-14T06:30:20.526Z,7.05
2018-11-14T06:32:49.719Z,10.50
2018-11-14T06:35:18.613Z,7.92
2018-11-14T06:37:47.082Z,8.05
2018-11-14T06:40:15.203Z,9.03
2018-11-14T06:42:43.742Z,7.78
2018-11-14T06:45:13.582Z,9.45
2018-11-14T06:47:43.005Z,8.15
2018-11-14T06:50:11.976Z,6.67
2018-11-14T06:52:40.630Z,5.42
2018-11-14T06:55:10.354Z,6.62
2018-11-14T06:57:38.513Z,5.60
2018-11-14T07:00:13.287Z,6.87
2018-11-14T07:02:41.821Z,6.10
2018-11-14T07:05:12.292Z,5.28
2018-11-14T07:07:40.438Z,4.95
2018-11-14T07:10:10.341Z,5.10
2018-11-14T07:12:38.487Z,8.05
2018-11-14T07:15:08.933Z,6.55
2018-11-14T07:17:37.217Z,5.67
2018-11-14T07:20:15.938Z,5.83
2018-11-14T07:22:44.800Z,5.60
2018-11-14T07:25:13.142Z,6.15
2018-11-14T07:27:41.298Z,10.58
2018-11-14T07:30:11.915Z,5.30
2018-11-14T07:32:41.318Z,5.62
2018-11-14T07:35:10.210Z,8.28
2018-11-14T07:37:38.402Z,8.28
2018-11-14T07:40:09.175Z,6.25
2018-11-14T07:42:37.341Z,7.55
2018-11-14T07:45:07.475Z,5.40
2018-11-14T07:47:35.618Z,4.87
2018-11-14T07:50:03.930Z,6.67
2018-11-14T07:52:32.009Z,5.12
2018-11-14T07:55:00.153Z,7.90
2018-11-14T07:57:28.302Z,5.40
2018-11-14T07:59:56.466Z,6.45
2018-11-14T08:02:24.652Z,5.75
2018-11-14T08:04:52.815Z,6.25
2018-11-14T08:07:21.059Z,7.50
2018-11-14T08:09:49.237Z,6.15
2018-11-14T08:12:17.619Z,6.15
2018-11-14T08:14:45.791Z,6.20
2018-11-14T08:17:13.930Z,5.12
2018-11-14T08:19:42.058Z,4.75
2018-11-14T08:22:10.225Z,4.10
2018-11-14T08:24:38.370Z,3.87
2018-11-14T08:27:06.539Z,4.12
2018-11-14T08:29:34.682Z,3.70
2018-11-14T08:32:03.286Z,3.90
2018-11-14T08:34:31.451Z,4.50
2018-11-14T08:36:59.579Z,5.50
2018-11-14T08:39:27.756Z,6.25
2018-11-14T08:41:55.857Z,14.95
2018-11-14T08:44:24.000Z,5.70
2018-11-14T08:46:52.158Z,6.78
2018-11-14T08:49:20.374Z,5.37
2018-11-14T08:51:49.378Z,6.83
2018-11-14T08:54:17.567Z,9.98
2018-11-14T08:56:45.712Z,6.85
2018-11-14T08:59:13.869Z,5.92
2018-11-14T09:01:42.070Z,5.90
2018-11-14T09:04:10.260Z,7.28
2018-11-14T09:06:38.497Z,7.80
2018-11-14T09:09:08.569Z,6.45
2018-11-14T09:11:36.715Z,6.10
2018-11-14T09:14:05.213Z,9.35
2018-11-14T09:16:33.777Z,5.35
2018-11-14T09:19:02.250Z,6.95
2018-11-14T09:21:30.815Z,5.85
2018-11-14T09:23:59.316Z,6.45
2018-11-14T09:26:28.595Z,5.45
2018-11-14T09:28:57.026Z,5.87
2018-11-14T09:31:25.660Z,6.37
2018-11-14T09:33:54.371Z,6.03
2018-11-14T09:36:22.859Z,9.37
2018-11-14T09:38:51.348Z,6.00
2018-11-14T09:41:19.887Z,7.28
2018-11-14T09:43:49.399Z,11.07
2018-11-14T09:46:17.879Z,7.90
2018-11-14T09:48:46.375Z,9.37
2018-11-14T09:51:14.866Z,20.27
2018-11-14T09:53:43.439Z,11.03
2018-11-14T09:56:11.855Z,9.07
2018-11-14T09:58:40.308Z,7.23
2018-11-14T10:01:08.739Z,9.85
2018-11-14T10:03:37.164Z,9.43
2018-11-14T10:06:05.857Z,11.22
2018-11-14T10:08:34.149Z,10.20
2018-11-14T10:11:02.674Z,8.10
2018-11-14T10:13:30.939Z,7.20
2018-11-14T10:15:59.337Z,9.30
2018-11-14T10:18:27.678Z,7.73
2018-11-14T10:20:56.156Z,7.63
2018-11-14T10:23:24.623Z,7.43
2018-11-14T10:25:53.046Z,9.27
2018-11-14T10:28:21.511Z,7.60
2018-11-14T10:30:50.023Z,6.60
2018-11-14T10:33:18.480Z,6.80
2018-11-14T10:35:47.124Z,8.40
2018-11-14T10:38:15.740Z,7.85
2018-11-14T10:40:44.207Z,7.93
2018-11-14T10:43:12.718Z,8.13
2018-11-14T10:45:41.187Z,8.17
2018-11-14T10:48:09.928Z,11.67
2018-11-14T10:50:39.131Z,10.07
2018-11-14T10:53:07.671Z,10.60
2018-11-14T10:55:36.134Z,10.37
2018-11-14T10:58:04.790Z,10.73
2018-11-14T11:00:38.608Z,12.63
2018-11-14T11:03:12.468Z,11.87
2018-11-14T11:05:46.230Z,13.47
2018-11-14T11:08:20.390Z,15.60
2018-11-14T11:10:53.949Z,16.87
2018-11-14T11:13:27.786Z,21.20
2018-11-14T11:16:01.663Z,21.07
2018-11-14T11:18:32.341Z,17.10
2018-11-14T11:21:01.126Z,20.43
2018-11-14T11:23:29.608Z,18.53
2018-11-14T11:25:58.082Z,17.67
2018-11-14T11:28:26.567Z,14.83
2018-11-14T11:30:55.020Z,10.77
2018-11-14T11:33:23.579Z,13.83
2018-11-14T11:35:52.055Z,13.87
2018-11-14T11:38:20.603Z,14.03
2018-11-14T11:40:48.935Z,13.93
2018-11-14T11:43:17.475Z,12.77
2018-11-14T11:45:46.038Z,12.70
2018-11-14T11:48:14.490Z,9.37
2018-11-14T11:50:43.000Z,8.23
2018-11-14T11:53:11.468Z,8.77
2018-11-14T11:55:39.938Z,8.00
2018-11-14T11:58:08.411Z,10.30
2018-11-14T12:00:37.147Z,7.60
2018-11-14T12:03:05.428Z,7.40
2018-11-14T12:05:33.898Z,7.10
2018-11-14T12:08:02.360Z,6.43
2018-11-14T12:10:30.973Z,6.53
2018-11-14T12:12:59.447Z,6.77
2018-11-14T12:15:27.946Z,6.70
2018-11-14T12:17:56.544Z,7.07
2018-11-14T12:20:24.949Z,9.20
2018-11-14T12:22:53.480Z,6.77
2018-11-14T12:25:21.969Z,7.93
2018-11-14T12:27:50.411Z,6.80
2018-11-14T12:30:18.916Z,5.87
2018-11-14T12:32:47.390Z,6.83
2018-11-14T12:35:16.772Z,6.50
2018-11-14T12:37:45.190Z,6.03
2018-11-14T12:40:14.515Z,6.43
2018-11-14T12:42:43.050Z,6.20
2018-11-14T12:45:13.678Z,9.50
2018-11-14T12:47:42.328Z,7.70
2018-11-14T12:50:12.136Z,9.80
2018-11-14T12:52:41.038Z,11.03
2018-11-14T12:55:12.467Z,10.00
2018-11-14T12:57:41.068Z,6.40
2018-11-14T13:00:11.415Z,7.60
2018-11-14T13:02:39.764Z,7.07
2018-11-14T13:05:09.415Z,8.40
2018-11-14T13:07:38.831Z,6.93
2018-11-14T13:10:08.401Z,5.77
2018-11-14T13:12:36.908Z,5.80
2018-11-14T13:15:05.866Z,13.40
2018-11-14T13:17:34.404Z,9.10
2018-11-14T13:20:02.903Z,6.10
2018-11-14T13:22:31.286Z,5.63
2018-11-14T13:24:59.778Z,5.83
2018-11-14T13:27:28.140Z,6.13
2018-11-14T13:29:56.829Z,5.73
2018-11-14T13:32:25.335Z,5.90
2018-11-14T13:34:53.762Z,5.73
2018-11-14T13:37:22.169Z,5.40
2018-11-14T13:39:51.293Z,5.40
2018-11-14T13:42:19.758Z,6.30
2018-11-14T13:44:48.560Z,6.40
2018-11-14T13:47:16.993Z,6.00
2018-11-14T13:49:45.633Z,7.00
2018-11-14T13:52:13.888Z,6.63
2018-11-14T13:54:42.260Z,9.83
2018-11-14T13:57:10.499Z,7.27
2018-11-14T13:59:38.710Z,7.97
2018-11-14T14:02:06.886Z,7.00
2018-11-14T14:04:35.136Z,6.67
2018-11-14T14:07:03.542Z,8.20
2018-11-14T14:09:34.575Z,9.80
2018-11-14T14:12:04.275Z,7.20
2018-11-14T14:14:32.792Z,10.37
2018-11-14T14:17:01.399Z,9.00
2018-11-14T14:19:29.979Z,10.03
2018-11-14T14:21:59.611Z,6.60
2018-11-14T14:24:27.963Z,7.83
2018-11-14T14:26:56.560Z,7.13
2018-11-14T14:29:24.995Z,7.37
2018-11-14T14:31:53.450Z,5.97
2018-11-14T14:34:21.829Z,6.70
2018-11-14T14:36:50.306Z,5.47
2018-11-14T14:39:18.763Z,6.27
2018-11-14T14:41:47.086Z,6.20
2018-11-14T14:44:15.532Z,6.23
2018-11-14T14:46:44.028Z,5.30
2018-11-14T14:49:12.318Z,5.90
2018-11-14T14:51:41.345Z,7.07
2018-11-14T14:54:09.883Z,6.90
2018-11-14T14:56:38.436Z,7.20
2018-11-14T14:59:09.693Z,7.90
2018-11-14T15:01:38.168Z,8.60
2018-11-14T15:04:14.484Z,6.70
2018-11-14T15:06:43.071Z,29.27
2018-11-14T15:09:11.991Z,9.73
2018-11-14T15:11:40.255Z,10.37
2018-11-14T15:14:08.443Z,10.30
2018-11-14T15:16:37.170Z,13.13
2018-11-14T15:19:06.274Z,8.97
2018-11-14T15:21:34.458Z,8.50
2018-11-14T15:24:02.688Z,8.03
2018-11-14T15:26:30.933Z,8.50
2018-11-14T15:28:59.523Z,9.07
2018-11-14T15:31:27.815Z,9.23
2018-11-14T15:33:56.431Z,8.23
2018-11-14T15:36:24.691Z,8.60
2018-11-14T15:38:52.981Z,8.27
2018-11-14T15:41:21.150Z,8.57
2018-11-14T15:43:50.894Z,8.87
2018-11-14T15:46:19.117Z,11.10
2018-11-14T15:48:47.402Z,10.77
2018-11-14T15:51:15.706Z,14.40
2018-11-14T15:53:45.894Z,14.47
2018-11-14T15:56:14.542Z,12.07
2018-11-14T15:58:43.033Z,11.17
2018-11-14T16:01:12.324Z,11.63
2018-11-14T16:03:43.049Z,11.00
2018-11-14T16:06:11.686Z,10.87
2018-11-14T16:08:40.432Z,10.30
2018-11-14T16:11:08.881Z,9.93
2018-11-14T16:13:37.359Z,11.70
2018-11-14T16:16:05.812Z,11.10
2018-11-14T16:18:34.320Z,11.67
2018-11-14T16:21:02.781Z,11.60
2018-11-14T16:23:31.264Z,11.60
2018-11-14T16:25:59.740Z,12.03
2018-11-14T16:28:28.356Z,12.63
2018-11-14T16:30:56.842Z,10.40
2018-11-14T16:33:25.260Z,12.10
2018-11-14T16:35:54.566Z,11.10
2018-11-14T16:38:23.406Z,11.70
2018-11-14T16:40:52.104Z,12.37
2018-11-14T16:43:20.881Z,12.13
2018-11-14T16:45:49.433Z,12.53
2018-11-14T16:48:21.203Z,10.50
2018-11-14T16:50:49.900Z,11.10
2018-11-14T16:53:18.388Z,10.63
2018-11-14T16:55:46.790Z,10.67
2018-11-14T16:58:15.126Z,13.80
2018-11-14T17:00:43.476Z,13.50
2018-11-14T17:03:12.051Z,20.60
2018-11-14T17:05:40.560Z,21.50
2018-11-14T17:08:09.002Z,19.12
2018-11-14T17:10:37.521Z,16.80
2018-11-14T17:13:06.069Z,19.87
2018-11-14T17:15:34.874Z,18.90
2018-11-14T17:18:03.155Z,18.70
2018-11-14T17:20:31.375Z,19.17
2018-11-14T17:22:59.580Z,18.50
2018-11-14T17:25:31.485Z,18.17
2018-11-14T17:31:23.910Z,42.70
2018-11-14T17:33:52.094Z,39.15
2018-11-14T17:36:20.415Z,29.12
2018-11-14T17:38:48.765Z,26.97
2018-11-14T17:41:17.019Z,21.45
2018-11-14T17:43:46.281Z,22.48
2018-11-14T17:46:14.949Z,22.13
2018-11-14T17:48:43.628Z,21.12
2018-11-14T17:51:12.530Z,24.00
2018-11-14T17:53:40.874Z,17.80
2018-11-14T17:56:09.446Z,17.48
2018-11-14T17:58:38.068Z,17.85
2018-11-14T18:01:06.628Z,17.32
2018-11-14T18:03:35.111Z,16.97
2018-11-14T18:06:03.635Z,16.27
2018-11-14T18:08:32.094Z,20.40
2018-11-14T18:11:00.728Z,19.70
2018-11-14T18:13:29.313Z,20.75
2018-11-14T18:15:57.924Z,20.68
2018-11-14T18:18:26.380Z,19.42
2018-11-14T18:20:54.915Z,21.55
2018-11-14T18:23:25.746Z,20.92
2018-11-14T18:25:53.949Z,22.40
2018-11-14T18:28:22.701Z,18.42
2018-11-14T18:30:51.220Z,16.82
2018-11-14T18:33:19.861Z,17.85
2018-11-14T18:35:48.103Z,18.48
2018-11-14T18:38:16.578Z,17.75
2018-11-14T18:40:45.048Z,20.60
2018-11-14T18:43:13.238Z,19.52
2018-11-14T18:45:41.486Z,22.70
2018-11-14T18:48:09.843Z,20.92
2018-11-14T18:50:38.004Z,21.37
2018-11-14T18:53:06.458Z,19.95
2018-11-14T18:55:35.290Z,20.55
2018-11-14T18:58:04.066Z,17.70
2018-11-14T19:00:33.759Z,19.15
2018-11-14T19:03:02.096Z,17.67
2018-11-14T19:05:30.436Z,19.62
2018-11-14T19:07:58.714Z,24.02
2018-11-14T19:10:28.501Z,27.73
2018-11-14T19:12:57.052Z,25.35
2018-11-14T19:15:27.204Z,26.70
2018-11-14T19:17:55.483Z,34.20
2018-11-14T19:20:25.714Z,37.55
2018-11-14T19:22:54.936Z,41.30
2018-11-14T19:25:25.548Z,41.65
2018-11-14T19:27:53.869Z,32.60
2018-11-14T19:30:24.389Z,36.15
2018-11-14T19:32:53.420Z,28.15
2018-11-14T19:35:21.673Z,32.98
2018-11-14T19:37:50.866Z,31.12
2018-11-14T19:40:20.647Z,33.05
2018-11-14T19:42:50.190Z,31.33
2018-11-14T19:45:19.847Z,30.00
2018-11-14T19:47:48.259Z,29.72
2018-11-14T19:50:17.796Z,28.47
2018-11-14T19:52:46.430Z,28.35
2018-11-14T19:55:16.002Z,27.17
2018-11-14T19:57:45.226Z,27.30
2018-11-14T20:00:19.642Z,26.97
2018-11-14T20:02:48.130Z,23.67
2018-11-14T20:05:17.763Z,23.47
2018-11-14T20:07:46.310Z,21.93
2018-11-14T20:10:16.109Z,27.37
2018-11-14T20:12:44.506Z,27.30
2018-11-14T20:15:16.235Z,26.52
2018-11-14T20:17:45.262Z,27.80
2018-11-14T20:20:15.214Z,27.17
2018-11-14T20:22:44.188Z,31.35
2018-11-14T20:25:12.891Z,34.63
2018-11-14T20:27:41.791Z,30.32
2018-11-14T20:30:17.373Z,27.87
2018-11-14T20:47:54.555Z,23.55
2018-11-14T20:50:23.983Z,24.98
2018-11-14T20:52:53.608Z,25.37
2018-11-14T20:55:21.918Z,29.23
2018-11-14T20:57:50.486Z,31.73
2018-11-14T21:00:24.482Z,26.68
2018-11-14T21:02:52.828Z,30.97
2018-11-14T21:05:21.210Z,28.27
2018-11-14T21:07:49.475Z,27.55
2018-11-14T21:10:20.769Z,28.83
2018-11-14T21:12:52.371Z,27.50
2018-11-14T21:15:22.607Z,29.02
2018-11-14T21:18:00.483Z,26.33
2018-11-14T21:20:30.900Z,25.50
2018-11-14T21:22:59.459Z,27.20
2018-11-14T21:25:28.222Z,29.45
2018-11-14T21:27:57.402Z,26.52
2018-11-14T21:30:29.684Z,24.98
2018-11-14T21:33:12.758Z,23.18
2018-11-14T21:36:24.180Z,22.22
2018-11-14T21:38:52.836Z,20.97
2018-11-14T21:41:28.783Z,21.07
